Guest User

libreoffice-fresh-rpm 7.1.2-1

a guest
Apr 16th, 2021
66
Never
Not a member of Pastebin yet? Sign Up, it unlocks many cool features!
  1. Klone libreoffice-fresh-rpm Build-Dateien...
  2. Überprüfe libreoffice-fresh-rpm Abhängigkeiten...
  3. Abhängigkeiten werden aufgelöst...
  4. Interne Konflikte werden überprüft...
  5.  
  6. Erstelle libreoffice-fresh-rpm...
  7. ==> Erstelle Paket: libreoffice-fresh-rpm 7.1.2-1 (Do 15 Apr 2021 18:39:49 CEST)
  8. ==> Prüfe Laufzeit-Abhängigkeiten...
  9. ==> Prüfe Buildtime-Abhängigkeiten...
  10. ==> Empfange Quellen...
  11. -> Lade LibreOffice_7.1.2_Linux_x86-64_rpm.tar.gz herunter...
  12. % Total % Received % Xferd Average Speed Time Time Time Current
  13. Dload Upload Total Spent Left Speed
  14.  
  15. 0 0 0 0 0 0 0 0 --:--:-- --:--:-- --:--:-- 0
  16. 100 430 100 430 0 0 2000 0 --:--:-- --:--:-- --:--:-- 2000
  17.  
  18. 0 0 0 0 0 0 0 0 --:--:-- --:--:-- --:--:-- 0
  19. 0 257M 0 1056k 0 0 612k 0 0:07:10 0:00:01 0:07:09 801k
  20. 1 257M 1 2831k 0 0 1178k 0 0:03:43 0:00:02 0:03:41 1416k
  21. 2 257M 2 5792k 0 0 1697k 0 0:02:35 0:00:03 0:02:32 1926k
  22. 3 257M 3 9440k 0 0 2143k 0 0:02:02 0:00:04 0:01:58 2360k
  23. 5 257M 5 13.4M 0 0 2555k 0 0:01:43 0:00:05 0:01:38 2762k
  24. 7 257M 7 18.4M 0 0 2953k 0 0:01:29 0:00:06 0:01:23 3816k
  25. 9 257M 9 24.0M 0 0 3332k 0 0:01:19 0:00:07 0:01:12 4368k
  26. 11 257M 11 29.3M 0 0 3575k 0 0:01:13 0:00:08 0:01:05 4858k
  27. 13 257M 13 34.6M 0 0 3777k 0 0:01:09 0:00:09 0:01:00 5217k
  28. 15 257M 15 40.4M 0 0 3983k 0 0:01:06 0:00:10 0:00:56 5526k
  29. 17 257M 17 45.5M 0 0 4094k 0 0:01:04 0:00:11 0:00:53 5555k
  30. 19 257M 19 51.0M 0 0 4213k 0 0:01:02 0:00:12 0:00:50 5516k
  31. 22 257M 22 56.7M 0 0 4334k 0 0:01:00 0:00:13 0:00:47 5609k
  32. 23 257M 23 61.3M 0 0 4360k 0 0:01:00 0:00:14 0:00:46 5455k
  33. 25 257M 25 66.6M 0 0 4430k 0 0:00:59 0:00:15 0:00:44 5361k
  34. 28 257M 28 72.2M 0 0 4512k 0 0:00:58 0:00:16 0:00:42 5465k
  35. 30 257M 30 77.2M 0 0 4545k 0 0:00:57 0:00:17 0:00:40 5369k
  36. 32 257M 32 82.9M 0 0 4613k 0 0:00:57 0:00:18 0:00:39 5360k
  37. 34 257M 34 88.2M 0 0 4658k 0 0:00:56 0:00:19 0:00:37 5516k
  38. 36 257M 36 93.0M 0 0 4671k 0 0:00:56 0:00:20 0:00:36 5414k
  39. 38 257M 38 98.2M 0 0 4700k 0 0:00:56 0:00:21 0:00:35 5318k
  40. 40 257M 40 102M 0 0 4702k 0 0:00:56 0:00:22 0:00:34 5251k
  41. 42 257M 42 108M 0 0 4733k 0 0:00:55 0:00:23 0:00:32 5174k
  42. 44 257M 44 113M 0 0 4779k 0 0:00:55 0:00:24 0:00:31 5248k
  43. 46 257M 46 118M 0 0 4789k 0 0:00:54 0:00:25 0:00:29 5273k
  44. 48 257M 48 124M 0 0 4819k 0 0:00:54 0:00:26 0:00:28 5327k
  45. 50 257M 50 130M 0 0 4860k 0 0:00:54 0:00:27 0:00:27 5568k
  46. 52 257M 52 135M 0 0 4868k 0 0:00:54 0:00:28 0:00:26 5500k
  47. 54 257M 54 140M 0 0 4895k 0 0:00:53 0:00:29 0:00:24 5465k
  48. 56 257M 56 146M 0 0 4922k 0 0:00:53 0:00:30 0:00:23 5596k
  49. 58 257M 58 150M 0 0 4920k 0 0:00:53 0:00:31 0:00:22 5456k
  50. 60 257M 60 156M 0 0 4936k 0 0:00:53 0:00:32 0:00:21 5353k
  51. 62 257M 62 161M 0 0 4957k 0 0:00:53 0:00:33 0:00:20 5462k
  52. 64 257M 64 166M 0 0 4964k 0 0:00:53 0:00:34 0:00:19 5366k
  53. 67 257M 67 172M 0 0 4988k 0 0:00:52 0:00:35 0:00:17 5388k
  54. 69 257M 69 178M 0 0 5014k 0 0:00:52 0:00:36 0:00:16 5606k
  55. 71 257M 71 183M 0 0 5016k 0 0:00:52 0:00:37 0:00:15 5532k
  56. 73 257M 73 188M 0 0 5037k 0 0:00:52 0:00:38 0:00:14 5574k
  57. 75 257M 75 194M 0 0 5043k 0 0:00:52 0:00:39 0:00:13 5587k
  58. 77 257M 77 199M 0 0 5045k 0 0:00:52 0:00:40 0:00:12 5446k
  59. 79 257M 79 204M 0 0 5062k 0 0:00:52 0:00:41 0:00:11 5411k
  60. 81 257M 81 209M 0 0 5064k 0 0:00:52 0:00:42 0:00:10 5427k
  61. 83 257M 83 215M 0 0 5074k 0 0:00:51 0:00:43 0:00:08 5356k
  62. 85 257M 85 220M 0 0 5094k 0 0:00:51 0:00:44 0:00:07 5494k
  63. 87 257M 87 225M 0 0 5094k 0 0:00:51 0:00:45 0:00:06 5494k
  64. 89 257M 89 231M 0 0 5105k 0 0:00:51 0:00:46 0:00:05 5456k
  65. 92 257M 92 237M 0 0 5123k 0 0:00:51 0:00:47 0:00:04 5618k
  66. 94 257M 94 241M 0 0 5116k 0 0:00:51 0:00:48 0:00:03 5479k
  67. 96 257M 96 247M 0 0 5122k 0 0:00:51 0:00:49 0:00:02 5372k
  68. 98 257M 98 252M 0 0 5135k 0 0:00:51 0:00:50 0:00:01 5510k
  69. 100 257M 100 257M 0 0 5136k 0 0:00:51 0:00:51 --:--:-- 5435k
  70.  
  71. ==> Überprüfe source Dateien mit sha256sums...
  72. LibreOffice_7.1.2_Linux_x86-64_rpm.tar.gz ... Durchgelaufen
  73. ==> Entferne existierendes $srcdir/ Verzeichnis...
  74. ==> Entpacke Quellen...
  75. -> Entpacke LibreOffice_7.1.2_Linux_x86-64_rpm.tar.gz mit bsdtar
  76. ==> Beginne prepare()...
  77. % Total % Received % Xferd Average Speed Time Time Time Current
  78. Dload Upload Total Spent Left Speed
  79.  
  80. 0 0 0 0 0 0 0 0 --:--:-- --:--:-- --:--:-- 0
  81. 100 25330 0 25330 0 0 181k 0 --:--:-- --:--:-- --:--:-- 180k
  82. 100 123k 0 123k 0 0 596k 0 --:--:-- --:--:-- --:--:-- 593k
  83.  
RAW Paste Data